Terminal Aerodrome Forecast
Issued by NWS

Home | Current Version | Previous Version | Text Only | Print | Product List | Glossary On
Versions: 1 2 3 4 5 6 7 8 9 10 11 12 13 14
471
FTUS44 KLZK 230548
TAFPBF
TAF
KPBF 230548Z 2306/2406 14010G18KT 5SM -SHRA BR OVC007
      TEMPO 2306/2310 2SM SHRA BR SCT007 OVC020
     FM231500 22009G16KT P6SM -SHRA SCT007 OVC020
     FM231900 24009G16KT P6SM -SHRA VCTS SCT025CB BKN060
     FM240200 VRB04KT P6SM VCSH SCT060 BKN100=

USA.gov is the U.S. government's official web portal to all federal, state and local government web resources and services.